createdAt,value
2019-03-01T00:00:00.732Z,16.00
2019-03-01T00:02:28.023Z,21.07
2019-03-01T00:05:13.503Z,19.07
2019-03-01T00:08:09.402Z,17.30
2019-03-01T00:10:49.009Z,13.20
2019-03-01T00:13:39.310Z,14.58
2019-03-01T00:16:19.037Z,19.80
2019-03-01T00:19:06.481Z,17.82
2019-03-01T00:21:43.003Z,17.87
2019-03-01T00:24:22.131Z,19.00
2019-03-01T00:27:01.355Z,19.07
2019-03-01T00:29:31.614Z,18.35
2019-03-01T00:32:04.954Z,15.80
2019-03-01T00:34:41.651Z,15.88
2019-03-01T00:37:21.081Z,16.00
2019-03-01T00:40:08.158Z,17.45
2019-03-01T00:42:39.559Z,21.12
2019-03-01T00:45:07.303Z,24.52
2019-03-01T00:47:33.925Z,21.42
2019-03-01T00:50:00.686Z,23.35
2019-03-01T00:52:27.283Z,29.75
2019-03-01T00:54:53.972Z,36.65
2019-03-01T00:57:20.643Z,36.68
2019-03-01T00:59:47.442Z,45.48
2019-03-01T01:02:14.150Z,37.45
2019-03-01T01:04:40.977Z,40.58
2019-03-01T01:07:07.586Z,38.83
2019-03-01T01:09:34.239Z,39.73
2019-03-01T01:12:00.905Z,40.25
2019-03-01T01:14:27.674Z,39.48
2019-03-01T01:16:54.387Z,33.28
2019-03-01T01:19:21.288Z,41.68
2019-03-01T01:21:47.996Z,36.23
2019-03-01T01:24:14.629Z,40.65
2019-03-01T01:26:41.331Z,41.00
2019-03-01T01:29:07.927Z,38.42
2019-03-01T01:31:34.949Z,39.27
2019-03-01T01:34:01.740Z,39.40
2019-03-01T01:36:28.360Z,39.40
2019-03-01T01:38:55.016Z,35.43
2019-03-01T01:41:21.719Z,36.93
2019-03-01T01:43:48.334Z,40.17
2019-03-01T01:46:15.004Z,33.05
2019-03-01T01:48:41.670Z,30.00
2019-03-01T01:51:08.286Z,28.85
2019-03-01T01:53:35.015Z,28.27
2019-03-01T01:56:01.699Z,33.15
2019-03-01T01:58:28.392Z,28.65
2019-03-01T02:00:55.086Z,33.15
2019-03-01T02:03:21.791Z,32.23
2019-03-01T02:05:48.686Z,34.92
2019-03-01T02:08:15.353Z,27.20
2019-03-01T02:10:42.039Z,28.27
2019-03-01T02:13:08.722Z,30.75
2019-03-01T02:15:35.489Z,102.38
2019-03-01T02:18:02.314Z,99.97
2019-03-01T02:20:29.999Z,94.00
2019-03-01T02:22:56.658Z,148.50
2019-03-01T02:25:23.528Z,114.70
2019-03-01T02:27:50.160Z,90.97
2019-03-01T02:30:23.562Z,70.87
2019-03-01T02:32:50.309Z,39.13
2019-03-01T02:35:18.060Z,33.38
2019-03-01T02:37:44.810Z,32.88
2019-03-01T02:40:13.193Z,29.30
2019-03-01T02:42:39.822Z,36.08
2019-03-01T02:45:12.300Z,30.88
2019-03-01T02:47:39.025Z,34.48
2019-03-01T02:50:08.438Z,30.15
2019-03-01T02:52:35.275Z,27.32
2019-03-01T02:55:03.441Z,34.58
2019-03-01T02:57:30.190Z,26.82
2019-03-01T02:59:56.926Z,27.90
2019-03-01T03:02:23.618Z,30.40
2019-03-01T03:04:50.231Z,32.95
2019-03-01T03:07:18.785Z,33.58
2019-03-01T03:09:45.623Z,30.55
2019-03-01T03:12:12.668Z,34.88
2019-03-01T03:14:39.413Z,34.08
2019-03-01T03:17:06.148Z,33.50
2019-03-01T03:19:32.783Z,41.80
2019-03-01T03:22:00.444Z,41.28
2019-03-01T03:24:27.180Z,38.90
2019-03-01T03:26:53.818Z,40.08
2019-03-01T03:29:20.662Z,39.13
2019-03-01T03:31:47.421Z,41.18
2019-03-01T03:34:14.141Z,39.10
2019-03-01T03:36:40.832Z,37.83
2019-03-01T03:39:10.178Z,44.58
2019-03-01T03:41:37.020Z,39.65
2019-03-01T03:44:03.767Z,35.43
2019-03-01T03:46:30.481Z,36.15
2019-03-01T03:48:57.250Z,40.73
2019-03-01T03:51:23.979Z,37.33
2019-03-01T03:53:50.725Z,30.95
2019-03-01T03:56:17.375Z,31.35
2019-03-01T03:58:43.982Z,36.45
2019-03-01T04:01:10.733Z,35.35
2019-03-01T04:03:37.367Z,38.23
2019-03-01T04:06:04.119Z,31.73
2019-03-01T04:08:30.952Z,31.12
2019-03-01T04:10:57.585Z,33.95
2019-03-01T04:13:24.233Z,32.48
2019-03-01T04:15:50.980Z,32.25
2019-03-01T04:18:17.603Z,30.55
2019-03-01T04:20:44.262Z,27.37
2019-03-01T04:23:11.178Z,28.80
2019-03-01T04:25:37.925Z,35.75
2019-03-01T04:28:04.659Z,35.38
2019-03-01T04:30:31.404Z,29.27
2019-03-01T04:32:58.167Z,34.85
2019-03-01T04:35:24.877Z,35.38
2019-03-01T04:37:51.727Z,37.78
2019-03-01T04:40:18.459Z,38.23
2019-03-01T04:42:45.306Z,32.33
2019-03-01T04:45:13.472Z,31.02
2019-03-01T04:47:40.220Z,36.45
2019-03-01T04:50:09.965Z,33.90
2019-03-01T04:52:36.937Z,38.78
2019-03-01T04:55:16.007Z,31.02
2019-03-01T04:57:42.738Z,35.60
2019-03-01T05:00:14.813Z,43.25
2019-03-01T05:05:08.482Z,38.17
2019-03-01T05:07:35.220Z,44.73
2019-03-01T05:10:02.789Z,35.33
2019-03-01T05:12:30.542Z,38.00
2019-03-01T05:14:57.234Z,41.05
2019-03-01T05:17:23.849Z,31.60
2019-03-01T05:19:50.508Z,38.35
2019-03-01T05:22:17.298Z,35.08
2019-03-01T05:24:44.241Z,33.85
2019-03-01T05:27:10.944Z,34.23
2019-03-01T05:29:37.640Z,38.05
2019-03-01T05:32:04.236Z,32.65
2019-03-01T05:34:30.906Z,37.40
2019-03-01T05:36:57.630Z,39.05
2019-03-01T05:39:24.246Z,38.58
2019-03-01T05:41:50.837Z,36.85
2019-03-01T05:44:17.528Z,39.00
2019-03-01T05:46:44.186Z,41.95
2019-03-01T05:49:10.798Z,38.25
2019-03-01T05:51:37.471Z,35.75
2019-03-01T05:54:04.063Z,38.02
2019-03-01T05:56:30.678Z,38.90
2019-03-01T06:02:58.541Z,32.08
2019-03-01T06:05:59.195Z,37.73
2019-03-01T06:12:12.510Z,35.17
2019-03-01T06:15:46.669Z,40.35
2019-03-01T06:19:07.664Z,41.48
2019-03-01T06:22:42.688Z,40.30
2019-03-01T06:25:54.328Z,29.45
2019-03-01T06:29:15.426Z,41.88
2019-03-01T06:35:56.337Z,51.13
2019-03-01T06:49:22.360Z,53.05
2019-03-01T06:52:33.909Z,46.83
2019-03-01T06:59:18.308Z,41.05
2019-03-01T07:05:46.058Z,42.93
2019-03-01T07:09:05.032Z,49.25
2019-03-01T07:12:08.332Z,43.65
2019-03-01T07:15:25.978Z,48.08
2019-03-01T07:18:26.551Z,44.90
2019-03-01T07:21:42.151Z,48.13
2019-03-01T07:28:27.370Z,52.85
2019-03-01T07:34:56.477Z,62.35
2019-03-01T07:38:01.325Z,72.92
2019-03-01T07:41:14.690Z,67.25
2019-03-01T07:44:18.585Z,54.93
2019-03-01T07:50:25.627Z,49.70
2019-03-01T07:53:16.739Z,40.30
2019-03-01T07:56:25.515Z,43.63
2019-03-01T07:59:49.188Z,34.15
2019-03-01T08:02:45.981Z,50.63
2019-03-01T08:06:00.846Z,52.58
2019-03-01T08:08:43.306Z,49.42
2019-03-01T08:11:31.767Z,40.88
2019-03-01T08:14:31.550Z,53.92
2019-03-01T08:17:31.609Z,51.42
2019-03-01T08:20:33.917Z,56.77
2019-03-01T08:23:22.826Z,55.60
2019-03-01T08:26:04.138Z,49.65
2019-03-01T08:29:04.314Z,55.60
2019-03-01T08:32:02.074Z,48.13
2019-03-01T08:35:11.544Z,50.23
2019-03-01T08:38:17.181Z,53.68
2019-03-01T08:41:33.915Z,53.85
2019-03-01T08:44:49.969Z,52.03
2019-03-01T08:48:08.403Z,34.78
2019-03-01T08:51:14.964Z,42.45
2019-03-01T08:54:22.982Z,38.10
2019-03-01T08:57:28.212Z,36.73
2019-03-01T09:00:45.048Z,36.25
2019-03-01T09:03:41.587Z,33.53
2019-03-01T09:06:44.313Z,36.90
2019-03-01T09:09:45.313Z,33.00
2019-03-01T09:12:56.153Z,31.62
2019-03-01T09:15:57.437Z,37.33
2019-03-01T09:19:08.658Z,37.33
2019-03-01T09:22:06.006Z,38.33
2019-03-01T09:25:14.479Z,39.88
2019-03-01T09:28:20.566Z,35.05
2019-03-01T09:31:34.815Z,38.25
2019-03-01T09:34:49.512Z,35.63
2019-03-01T09:37:45.632Z,36.15
2019-03-01T09:41:04.423Z,43.83
2019-03-01T09:43:52.022Z,39.35
2019-03-01T09:47:04.432Z,38.28
2019-03-01T09:49:36.302Z,45.17
2019-03-01T09:52:35.015Z,34.92
2019-03-01T09:55:38.562Z,36.53
2019-03-01T09:58:39.294Z,36.17
2019-03-01T10:01:48.997Z,34.70
2019-03-01T10:04:55.675Z,36.25
2019-03-01T10:08:14.139Z,34.60
2019-03-01T10:11:26.035Z,36.38
2019-03-01T10:14:32.669Z,37.28
2019-03-01T10:17:35.980Z,33.65
2019-03-01T10:20:49.940Z,36.98
2019-03-01T10:23:48.857Z,36.75
2019-03-01T10:27:08.318Z,36.17
2019-03-01T10:30:15.270Z,34.40
2019-03-01T10:33:21.745Z,34.18
2019-03-01T10:36:04.991Z,32.85
2019-03-01T10:39:02.753Z,39.63
2019-03-01T10:42:15.801Z,38.85
2019-03-01T10:48:36.408Z,38.90
2019-03-01T10:51:52.398Z,38.33
2019-03-01T10:58:24.155Z,34.25
2019-03-01T11:07:27.750Z,28.30
2019-03-01T11:10:27.353Z,31.62
2019-03-01T11:13:50.999Z,33.75
2019-03-01T11:20:29.742Z,26.48
2019-03-01T11:27:00.325Z,29.57
2019-03-01T11:30:20.188Z,33.92
2019-03-01T11:33:17.582Z,34.50
2019-03-01T11:36:14.522Z,29.10
2019-03-01T11:39:29.911Z,26.02
2019-03-01T11:46:02.647Z,30.82
2019-03-01T11:49:22.818Z,34.03
2019-03-01T11:55:58.262Z,32.73
2019-03-01T12:02:33.205Z,42.67
2019-03-01T12:05:26.811Z,33.48
2019-03-01T12:08:36.510Z,31.15
2019-03-01T12:11:57.273Z,35.00
2019-03-01T12:14:59.482Z,36.50
2019-03-01T12:18:16.328Z,31.68
2019-03-01T12:21:20.819Z,34.95
2019-03-01T12:24:33.593Z,38.25
2019-03-01T12:27:37.681Z,37.53
2019-03-01T12:30:55.044Z,34.08
2019-03-01T12:34:02.313Z,39.05
2019-03-01T12:37:23.266Z,39.90
2019-03-01T12:40:34.449Z,42.60
2019-03-01T12:43:47.528Z,37.95
2019-03-01T12:50:21.617Z,37.83
2019-03-01T12:53:45.734Z,35.85
2019-03-01T12:56:49.598Z,40.25
2019-03-01T13:00:05.103Z,42.55
2019-03-01T13:03:09.081Z,50.63
2019-03-01T13:06:21.088Z,47.23
2019-03-01T13:09:27.344Z,46.77
2019-03-01T13:15:54.183Z,44.10
2019-03-01T13:18:56.817Z,48.75
2019-03-01T13:22:14.787Z,52.03
2019-03-01T13:28:51.253Z,45.45
2019-03-01T13:35:10.731Z,50.25
2019-03-01T13:38:19.379Z,52.00
2019-03-01T13:41:40.888Z,51.73
2019-03-01T13:44:11.332Z,48.92
2019-03-01T13:47:08.579Z,47.88
2019-03-01T13:50:22.836Z,52.58
2019-03-01T13:56:42.886Z,48.00
2019-03-01T13:59:44.694Z,51.30
2019-03-01T14:03:02.009Z,51.53
2019-03-01T14:05:54.707Z,53.75
2019-03-01T14:08:59.860Z,46.63
2019-03-01T14:12:07.679Z,52.73
2019-03-01T14:15:10.786Z,49.73
2019-03-01T14:18:28.358Z,49.27
2019-03-01T14:24:54.819Z,50.50
2019-03-01T14:27:52.868Z,50.33
2019-03-01T14:31:04.036Z,55.30
2019-03-01T14:37:11.059Z,48.95
2019-03-01T14:40:14.221Z,49.77
2019-03-01T14:43:32.574Z,43.40
2019-03-01T14:46:34.277Z,45.95
2019-03-01T14:49:54.049Z,47.90
2019-03-01T14:52:58.409Z,46.25
2019-03-01T14:56:14.511Z,53.70
2019-03-01T14:59:17.513Z,52.23
2019-03-01T15:02:41.497Z,50.90
2019-03-01T15:05:45.585Z,63.83
2019-03-01T15:09:06.555Z,53.02
2019-03-01T15:12:21.120Z,51.95
2019-03-01T15:15:33.980Z,51.23
2019-03-01T15:18:32.394Z,49.88
2019-03-01T15:21:49.248Z,53.17
2019-03-01T15:28:25.075Z,54.18
2019-03-01T15:35:02.788Z,52.90
2019-03-01T15:37:53.120Z,48.17
2019-03-01T15:41:09.244Z,50.50
2019-03-01T15:47:31.673Z,49.77
2019-03-01T15:50:47.988Z,64.35
2019-03-01T15:53:51.444Z,55.35
2019-03-01T15:56:48.552Z,54.83
2019-03-01T15:59:51.718Z,57.08
2019-03-01T16:02:49.946Z,52.20
2019-03-01T16:06:10.281Z,61.45
2019-03-01T16:09:03.791Z,58.28
2019-03-01T16:12:06.226Z,60.10
2019-03-01T16:14:57.423Z,54.88
2019-03-01T16:17:53.826Z,51.88
2019-03-01T16:21:05.266Z,54.18
2019-03-01T16:24:11.306Z,51.28
2019-03-01T16:27:12.042Z,55.38
2019-03-01T16:30:06.948Z,55.28
2019-03-01T16:33:15.960Z,59.67
2019-03-01T16:39:45.006Z,53.73
2019-03-01T16:42:45.335Z,57.55
2019-03-01T16:45:56.318Z,51.33
2019-03-01T16:48:58.934Z,53.05
2019-03-01T16:52:11.662Z,52.93
2019-03-01T16:55:20.515Z,61.33
2019-03-01T16:58:36.810Z,58.98
2019-03-01T17:01:46.377Z,56.05
2019-03-01T17:05:03.685Z,52.48
2019-03-01T17:08:05.612Z,59.85
2019-03-01T17:11:09.372Z,53.55
2019-03-01T17:14:03.395Z,41.27
2019-03-01T17:17:07.210Z,64.67
2019-03-01T17:20:14.728Z,60.75
2019-03-01T17:23:24.759Z,63.38
2019-03-01T17:26:38.973Z,57.62
2019-03-01T17:29:35.789Z,49.47
2019-03-01T17:32:36.939Z,60.43
2019-03-01T17:35:32.975Z,61.53
2019-03-01T17:38:33.156Z,66.80
2019-03-01T17:41:45.866Z,70.45
2019-03-01T17:44:47.635Z,66.37
2019-03-01T17:47:42.198Z,71.00
2019-03-01T17:50:57.011Z,72.70
2019-03-01T17:54:00.503Z,62.38
2019-03-01T17:57:24.377Z,64.20
2019-03-01T18:00:31.530Z,71.67
2019-03-01T18:03:58.091Z,63.95
2019-03-01T18:06:56.802Z,111.60
2019-03-01T18:10:17.784Z,91.25
2019-03-01T18:13:15.132Z,75.57
2019-03-01T18:16:32.305Z,71.72
2019-03-01T18:19:35.221Z,80.20
2019-03-01T18:22:51.600Z,68.72
2019-03-01T18:25:22.882Z,87.90
2019-03-01T18:27:53.129Z,80.30
2019-03-01T18:30:29.860Z,73.97
2019-03-01T18:32:56.472Z,71.12
2019-03-01T18:35:23.171Z,77.00
2019-03-01T18:37:51.466Z,83.15
2019-03-01T18:40:18.638Z,75.17
2019-03-01T18:42:45.286Z,73.78
2019-03-01T18:45:20.152Z,72.53
2019-03-01T18:47:46.950Z,83.62
2019-03-01T18:50:33.725Z,73.52
2019-03-01T18:53:03.604Z,52.13
2019-03-01T18:55:30.275Z,38.60
2019-03-01T18:57:56.867Z,25.27
2019-03-01T19:00:38.614Z,23.90
2019-03-01T19:03:06.003Z,25.02
2019-03-01T19:05:32.703Z,25.27
2019-03-01T19:08:00.838Z,24.55
2019-03-01T19:10:29.170Z,22.95
2019-03-01T19:12:55.787Z,25.72
2019-03-01T19:15:22.452Z,26.50
2019-03-01T19:17:49.130Z,17.15
2019-03-01T19:20:21.861Z,18.17
2019-03-01T19:22:48.668Z,16.60
2019-03-01T19:25:15.890Z,26.87
2019-03-01T19:27:42.502Z,35.48
2019-03-01T19:30:13.751Z,40.33
2019-03-01T19:32:40.457Z,42.33
2019-03-01T19:35:08.370Z,45.05
2019-03-01T19:37:35.079Z,44.42
2019-03-01T19:40:01.784Z,65.15
2019-03-01T19:42:32.791Z,51.73
2019-03-01T19:45:00.702Z,62.15
2019-03-01T19:47:27.379Z,58.85
2019-03-01T19:49:56.590Z,64.30
2019-03-01T19:52:23.350Z,62.90
2019-03-01T19:54:50.025Z,58.15
2019-03-01T19:57:16.741Z,59.00
2019-03-01T19:59:46.531Z,59.77
2019-03-01T20:02:11.985Z,56.02
2019-03-01T20:04:38.642Z,56.88
2019-03-01T20:07:06.226Z,56.63
2019-03-01T20:09:33.007Z,57.62
2019-03-01T20:12:02.697Z,53.83
2019-03-01T20:14:30.312Z,50.98
2019-03-01T20:16:58.178Z,56.42
2019-03-01T20:19:25.516Z,52.53
2019-03-01T20:21:52.123Z,55.17
2019-03-01T20:24:18.833Z,57.62
2019-03-01T20:26:45.548Z,54.83
2019-03-01T20:29:12.196Z,53.60
2019-03-01T20:31:40.476Z,58.92
2019-03-01T20:34:07.469Z,58.25
2019-03-01T20:36:34.055Z,53.30
2019-03-01T20:39:01.732Z,53.95
2019-03-01T20:41:30.199Z,57.13
2019-03-01T20:43:56.917Z,60.52
2019-03-01T20:46:24.474Z,50.58
2019-03-01T20:48:51.362Z,53.58
2019-03-01T20:51:18.186Z,54.50
2019-03-01T20:53:45.744Z,53.55
2019-03-01T20:56:16.795Z,60.20
2019-03-01T20:58:42.051Z,54.00
2019-03-01T21:01:08.703Z,51.20
2019-03-01T21:03:35.360Z,56.95
2019-03-01T21:06:04.666Z,61.50
2019-03-01T21:08:30.707Z,63.95
2019-03-01T21:10:57.403Z,67.87
2019-03-01T21:13:24.030Z,68.78
2019-03-01T21:15:50.688Z,69.45
2019-03-01T21:18:17.438Z,68.20
2019-03-01T21:20:45.036Z,69.00
2019-03-01T21:23:11.872Z,67.20
2019-03-01T21:25:40.838Z,65.87
2019-03-01T21:28:07.735Z,65.47
2019-03-01T21:30:34.354Z,64.20
2019-03-01T21:33:01.027Z,67.58
2019-03-01T21:35:27.638Z,67.87
2019-03-01T21:37:54.235Z,71.65
2019-03-01T21:40:20.998Z,68.72
2019-03-01T21:42:47.596Z,64.62
2019-03-01T21:45:21.525Z,64.90
2019-03-01T21:47:47.999Z,69.07
2019-03-01T21:50:15.547Z,69.30
2019-03-01T21:52:42.202Z,64.07
2019-03-01T21:55:18.390Z,68.70
2019-03-01T21:57:45.063Z,72.97
2019-03-01T22:00:15.298Z,73.97
2019-03-01T22:02:43.810Z,75.57
2019-03-01T22:05:13.638Z,73.78
2019-03-01T22:07:40.587Z,77.12
2019-03-01T22:10:11.334Z,72.35
2019-03-01T22:12:37.963Z,75.75
2019-03-01T22:15:10.952Z,74.00
2019-03-01T22:17:37.705Z,84.22
2019-03-01T22:20:08.920Z,80.67
2019-03-01T22:22:37.510Z,83.58
2019-03-01T22:25:12.019Z,89.32
2019-03-01T22:27:38.680Z,87.02
2019-03-01T22:30:31.757Z,90.87
2019-03-01T22:32:58.421Z,94.03
2019-03-01T22:35:25.127Z,93.45
2019-03-01T22:37:51.908Z,88.45
2019-03-01T22:40:18.613Z,96.87
2019-03-01T22:42:45.672Z,100.05
2019-03-01T22:45:15.302Z,95.62
2019-03-01T22:47:41.975Z,93.62
2019-03-01T22:50:15.900Z,88.47
2019-03-01T22:52:42.657Z,93.03
2019-03-01T22:55:13.999Z,92.88
2019-03-01T22:57:40.613Z,94.65
2019-03-01T23:00:27.182Z,89.70
2019-03-01T23:02:55.846Z,89.52
2019-03-01T23:05:22.475Z,92.40
2019-03-01T23:07:49.154Z,83.70
2019-03-01T23:10:18.454Z,90.47
2019-03-01T23:12:44.623Z,89.65
2019-03-01T23:15:11.287Z,83.45
2019-03-01T23:17:38.024Z,85.85
2019-03-01T23:20:08.911Z,86.65
2019-03-01T23:22:35.571Z,89.28
2019-03-01T23:25:02.252Z,89.35
2019-03-01T23:27:31.836Z,83.35
2019-03-01T23:29:57.452Z,85.40
2019-03-01T23:32:24.168Z,83.33
2019-03-01T23:34:50.919Z,87.10
2019-03-01T23:37:17.632Z,78.83
2019-03-01T23:39:44.329Z,92.37
2019-03-01T23:42:10.920Z,84.00
2019-03-01T23:44:38.667Z,90.32
2019-03-01T23:47:06.198Z,83.65
2019-03-01T23:49:32.915Z,82.67
2019-03-01T23:51:59.739Z,86.00
2019-03-01T23:54:26.503Z,85.12
2019-03-01T23:56:53.109Z,88.17
2019-03-01T23:59:19.795Z,85.53
